sensor_id;sensor_type;location;lat;lon;timestamp;P1;durP1;ratioP1;P2;durP2;ratioP2
8791;SDS011;4432;50.890;4.744;2023-05-07T00:00:02;6.63;;;4.17;;
8791;SDS011;4432;50.890;4.744;2023-05-07T00:02:32;7.03;;;4.00;;
8791;SDS011;4432;50.890;4.744;2023-05-07T00:04:58;5.03;;;3.93;;
8791;SDS011;4432;50.890;4.744;2023-05-07T00:07:24;6.27;;;4.30;;
8791;SDS011;4432;50.890;4.744;2023-05-07T00:09:50;6.23;;;3.97;;
8791;SDS011;4432;50.890;4.744;2023-05-07T00:12:15;4.20;;;3.73;;
8791;SDS011;4432;50.890;4.744;2023-05-07T00:14:41;6.00;;;3.43;;
8791;SDS011;4432;50.890;4.744;2023-05-07T00:17:07;6.77;;;3.63;;
8791;SDS011;4432;50.890;4.744;2023-05-07T00:19:32;10.63;;;3.50;;
8791;SDS011;4432;50.890;4.744;2023-05-07T00:21:58;5.67;;;4.00;;
8791;SDS011;4432;50.890;4.744;2023-05-07T00:24:24;6.37;;;4.03;;
8791;SDS011;4432;50.890;4.744;2023-05-07T00:26:50;6.73;;;4.30;;
8791;SDS011;4432;50.890;4.744;2023-05-07T00:29:17;5.37;;;3.70;;
8791;SDS011;4432;50.890;4.744;2023-05-07T00:31:43;4.23;;;3.83;;
8791;SDS011;4432;50.890;4.744;2023-05-07T00:34:09;6.00;;;4.70;;
8791;SDS011;4432;50.890;4.744;2023-05-07T00:36:35;5.33;;;3.90;;
8791;SDS011;4432;50.890;4.744;2023-05-07T00:39:00;5.50;;;4.00;;
8791;SDS011;4432;50.890;4.744;2023-05-07T00:41:28;4.23;;;3.83;;
8791;SDS011;4432;50.890;4.744;2023-05-07T00:43:55;4.80;;;3.90;;
8791;SDS011;4432;50.890;4.744;2023-05-07T00:46:21;4.20;;;3.80;;
8791;SDS011;4432;50.890;4.744;2023-05-07T00:48:49;7.00;;;4.40;;
8791;SDS011;4432;50.890;4.744;2023-05-07T00:51:16;4.33;;;3.93;;
8791;SDS011;4432;50.890;4.744;2023-05-07T00:53:42;4.10;;;3.70;;
8791;SDS011;4432;50.890;4.744;2023-05-07T00:56:08;6.00;;;4.33;;
8791;SDS011;4432;50.890;4.744;2023-05-07T00:58:35;6.43;;;4.37;;
8791;SDS011;4432;50.890;4.744;2023-05-07T01:01:01;10.67;;;4.90;;
8791;SDS011;4432;50.890;4.744;2023-05-07T01:03:26;4.03;;;3.50;;
8791;SDS011;4432;50.890;4.744;2023-05-07T01:05:52;6.00;;;4.00;;
8791;SDS011;4432;50.890;4.744;2023-05-07T01:08:19;5.63;;;4.30;;
8791;SDS011;4432;50.890;4.744;2023-05-07T01:10:47;6.20;;;4.30;;
8791;SDS011;4432;50.890;4.744;2023-05-07T01:13:13;5.53;;;4.70;;
8791;SDS011;4432;50.890;4.744;2023-05-07T01:15:40;5.43;;;4.30;;
8791;SDS011;4432;50.890;4.744;2023-05-07T01:18:06;4.50;;;3.77;;
8791;SDS011;4432;50.890;4.744;2023-05-07T01:20:32;10.03;;;4.20;;
8791;SDS011;4432;50.890;4.744;2023-05-07T01:22:58;5.60;;;3.90;;
8791;SDS011;4432;50.890;4.744;2023-05-07T01:25:25;5.50;;;4.33;;
8791;SDS011;4432;50.890;4.744;2023-05-07T01:27:51;6.73;;;4.60;;
8791;SDS011;4432;50.890;4.744;2023-05-07T01:30:17;5.00;;;4.50;;
8791;SDS011;4432;50.890;4.744;2023-05-07T01:32:52;5.23;;;4.73;;
8791;SDS011;4432;50.890;4.744;2023-05-07T01:35:26;5.20;;;4.33;;
8791;SDS011;4432;50.890;4.744;2023-05-07T01:37:55;5.37;;;4.60;;
8791;SDS011;4432;50.890;4.744;2023-05-07T01:40:22;9.27;;;4.20;;
8791;SDS011;4432;50.890;4.744;2023-05-07T01:42:49;5.53;;;4.17;;
8791;SDS011;4432;50.890;4.744;2023-05-07T01:45:15;5.93;;;5.33;;
8791;SDS011;4432;50.890;4.744;2023-05-07T01:47:41;6.20;;;5.07;;
8791;SDS011;4432;50.890;4.744;2023-05-07T01:50:08;8.60;;;4.50;;
8791;SDS011;4432;50.890;4.744;2023-05-07T01:52:36;6.57;;;4.73;;
8791;SDS011;4432;50.890;4.744;2023-05-07T01:55:05;5.37;;;4.80;;
8791;SDS011;4432;50.890;4.744;2023-05-07T01:57:31;5.70;;;4.97;;
8791;SDS011;4432;50.890;4.744;2023-05-07T01:59:57;5.93;;;4.97;;
8791;SDS011;4432;50.890;4.744;2023-05-07T02:02:23;5.30;;;4.80;;
8791;SDS011;4432;50.890;4.744;2023-05-07T02:04:48;7.30;;;4.60;;
8791;SDS011;4432;50.890;4.744;2023-05-07T02:07:14;8.77;;;5.10;;
8791;SDS011;4432;50.890;4.744;2023-05-07T02:09:40;6.90;;;5.20;;
8791;SDS011;4432;50.890;4.744;2023-05-07T02:12:06;6.03;;;4.97;;
8791;SDS011;4432;50.890;4.744;2023-05-07T02:14:32;6.03;;;4.97;;
8791;SDS011;4432;50.890;4.744;2023-05-07T02:16:57;6.20;;;5.43;;
8791;SDS011;4432;50.890;4.744;2023-05-07T02:19:23;6.73;;;5.13;;
8791;SDS011;4432;50.890;4.744;2023-05-07T02:21:49;7.37;;;5.47;;
8791;SDS011;4432;50.890;4.744;2023-05-07T02:24:15;6.23;;;5.60;;
8791;SDS011;4432;50.890;4.744;2023-05-07T02:26:41;5.77;;;5.00;;
8791;SDS011;4432;50.890;4.744;2023-05-07T02:29:06;7.47;;;5.00;;
8791;SDS011;4432;50.890;4.744;2023-05-07T02:31:32;7.57;;;5.40;;
8791;SDS011;4432;50.890;4.744;2023-05-07T02:34:00;6.40;;;5.30;;
8791;SDS011;4432;50.890;4.744;2023-05-07T02:36:26;5.03;;;4.53;;
8791;SDS011;4432;50.890;4.744;2023-05-07T02:38:52;5.27;;;4.70;;
8791;SDS011;4432;50.890;4.744;2023-05-07T02:41:19;6.00;;;5.07;;
8791;SDS011;4432;50.890;4.744;2023-05-07T02:43:45;7.17;;;5.47;;
8791;SDS011;4432;50.890;4.744;2023-05-07T02:46:11;5.63;;;5.10;;
8791;SDS011;4432;50.890;4.744;2023-05-07T02:48:37;7.30;;;6.00;;
8791;SDS011;4432;50.890;4.744;2023-05-07T02:51:03;9.23;;;5.33;;
8791;SDS011;4432;50.890;4.744;2023-05-07T02:53:30;7.53;;;5.60;;
8791;SDS011;4432;50.890;4.744;2023-05-07T02:55:57;6.97;;;6.00;;
8791;SDS011;4432;50.890;4.744;2023-05-07T02:58:24;7.03;;;6.10;;
8791;SDS011;4432;50.890;4.744;2023-05-07T03:00:51;8.13;;;6.47;;
8791;SDS011;4432;50.890;4.744;2023-05-07T03:03:17;9.63;;;6.63;;
8791;SDS011;4432;50.890;4.744;2023-05-07T03:05:43;8.47;;;6.63;;
8791;SDS011;4432;50.890;4.744;2023-05-07T03:08:10;8.13;;;6.50;;
8791;SDS011;4432;50.890;4.744;2023-05-07T03:10:36;8.93;;;7.03;;
8791;SDS011;4432;50.890;4.744;2023-05-07T03:13:02;7.67;;;6.53;;
8791;SDS011;4432;50.890;4.744;2023-05-07T03:15:28;8.53;;;6.13;;
8791;SDS011;4432;50.890;4.744;2023-05-07T03:17:54;7.13;;;6.13;;
8791;SDS011;4432;50.890;4.744;2023-05-07T03:20:20;7.80;;;7.00;;
8791;SDS011;4432;50.890;4.744;2023-05-07T03:22:46;7.47;;;6.43;;
8791;SDS011;4432;50.890;4.744;2023-05-07T03:25:11;7.40;;;6.47;;
8791;SDS011;4432;50.890;4.744;2023-05-07T03:27:37;7.17;;;5.50;;
8791;SDS011;4432;50.890;4.744;2023-05-07T03:30:03;8.80;;;5.93;;
8791;SDS011;4432;50.890;4.744;2023-05-07T03:32:29;8.27;;;6.93;;
8791;SDS011;4432;50.890;4.744;2023-05-07T03:34:55;8.13;;;6.70;;
8791;SDS011;4432;50.890;4.744;2023-05-07T03:37:21;8.20;;;6.40;;
8791;SDS011;4432;50.890;4.744;2023-05-07T03:39:46;8.03;;;5.93;;
8791;SDS011;4432;50.890;4.744;2023-05-07T03:42:12;6.37;;;5.77;;
8791;SDS011;4432;50.890;4.744;2023-05-07T03:44:38;7.33;;;6.00;;
8791;SDS011;4432;50.890;4.744;2023-05-07T03:47:04;9.20;;;6.00;;
8791;SDS011;4432;50.890;4.744;2023-05-07T03:49:30;6.83;;;6.07;;
8791;SDS011;4432;50.890;4.744;2023-05-07T03:51:55;9.13;;;5.83;;
8791;SDS011;4432;50.890;4.744;2023-05-07T03:54:21;7.73;;;6.13;;
8791;SDS011;4432;50.890;4.744;2023-05-07T03:56:47;7.87;;;6.23;;
8791;SDS011;4432;50.890;4.744;2023-05-07T03:59:13;8.23;;;6.17;;
8791;SDS011;4432;50.890;4.744;2023-05-07T04:01:39;8.50;;;6.23;;
8791;SDS011;4432;50.890;4.744;2023-05-07T04:04:05;8.00;;;6.57;;
8791;SDS011;4432;50.890;4.744;2023-05-07T04:06:30;10.10;;;7.37;;
8791;SDS011;4432;50.890;4.744;2023-05-07T04:08:56;8.07;;;6.37;;
8791;SDS011;4432;50.890;4.744;2023-05-07T04:11:22;7.87;;;6.57;;
8791;SDS011;4432;50.890;4.744;2023-05-07T04:13:48;6.73;;;5.73;;
8791;SDS011;4432;50.890;4.744;2023-05-07T04:16:14;9.23;;;6.10;;
8791;SDS011;4432;50.890;4.744;2023-05-07T04:18:40;6.93;;;6.10;;
8791;SDS011;4432;50.890;4.744;2023-05-07T04:21:13;9.90;;;6.77;;
8791;SDS011;4432;50.890;4.744;2023-05-07T04:23:43;6.70;;;5.97;;
8791;SDS011;4432;50.890;4.744;2023-05-07T04:26:09;7.30;;;6.20;;
8791;SDS011;4432;50.890;4.744;2023-05-07T04:28:35;9.17;;;5.83;;
8791;SDS011;4432;50.890;4.744;2023-05-07T04:31:01;7.93;;;6.20;;
8791;SDS011;4432;50.890;4.744;2023-05-07T04:33:27;8.50;;;6.47;;
8791;SDS011;4432;50.890;4.744;2023-05-07T04:35:53;8.57;;;6.10;;
8791;SDS011;4432;50.890;4.744;2023-05-07T04:38:18;8.40;;;6.50;;
8791;SDS011;4432;50.890;4.744;2023-05-07T04:40:44;7.67;;;6.20;;
8791;SDS011;4432;50.890;4.744;2023-05-07T04:43:11;8.17;;;6.10;;
8791;SDS011;4432;50.890;4.744;2023-05-07T04:45:38;8.53;;;6.60;;
8791;SDS011;4432;50.890;4.744;2023-05-07T04:48:06;7.97;;;6.77;;
8791;SDS011;4432;50.890;4.744;2023-05-07T04:50:32;7.50;;;6.33;;
8791;SDS011;4432;50.890;4.744;2023-05-07T04:52:58;10.57;;;6.43;;
8791;SDS011;4432;50.890;4.744;2023-05-07T04:55:23;8.33;;;6.43;;
8791;SDS011;4432;50.890;4.744;2023-05-07T04:57:49;9.83;;;6.73;;
8791;SDS011;4432;50.890;4.744;2023-05-07T05:00:15;9.53;;;6.93;;
8791;SDS011;4432;50.890;4.744;2023-05-07T05:02:41;11.00;;;7.03;;
8791;SDS011;4432;50.890;4.744;2023-05-07T05:05:07;7.80;;;7.00;;
8791;SDS011;4432;50.890;4.744;2023-05-07T05:07:33;8.80;;;7.23;;
8791;SDS011;4432;50.890;4.744;2023-05-07T05:09:59;18.27;;;8.07;;
8791;SDS011;4432;50.890;4.744;2023-05-07T05:12:25;8.97;;;7.17;;
8791;SDS011;4432;50.890;4.744;2023-05-07T05:14:50;10.13;;;7.93;;
8791;SDS011;4432;50.890;4.744;2023-05-07T05:17:17;9.67;;;7.00;;
8791;SDS011;4432;50.890;4.744;2023-05-07T05:19:42;10.80;;;7.90;;
8791;SDS011;4432;50.890;4.744;2023-05-07T05:22:08;12.10;;;7.83;;
8791;SDS011;4432;50.890;4.744;2023-05-07T05:24:34;13.73;;;7.83;;
8791;SDS011;4432;50.890;4.744;2023-05-07T05:27:00;10.73;;;7.83;;
8791;SDS011;4432;50.890;4.744;2023-05-07T05:29:27;10.10;;;7.70;;
8791;SDS011;4432;50.890;4.744;2023-05-07T05:31:52;9.00;;;7.30;;
8791;SDS011;4432;50.890;4.744;2023-05-07T05:34:18;11.83;;;8.67;;
8791;SDS011;4432;50.890;4.744;2023-05-07T05:36:47;8.13;;;7.00;;
8791;SDS011;4432;50.890;4.744;2023-05-07T05:39:12;11.07;;;7.63;;
8791;SDS011;4432;50.890;4.744;2023-05-07T05:41:39;8.10;;;7.30;;
8791;SDS011;4432;50.890;4.744;2023-05-07T05:44:05;13.80;;;8.33;;
8791;SDS011;4432;50.890;4.744;2023-05-07T05:46:30;10.43;;;7.97;;
8791;SDS011;4432;50.890;4.744;2023-05-07T05:48:56;10.40;;;7.70;;
8791;SDS011;4432;50.890;4.744;2023-05-07T05:51:22;9.43;;;7.50;;
8791;SDS011;4432;50.890;4.744;2023-05-07T05:53:48;9.77;;;8.50;;
8791;SDS011;4432;50.890;4.744;2023-05-07T05:56:15;7.73;;;7.00;;
8791;SDS011;4432;50.890;4.744;2023-05-07T05:58:41;8.80;;;7.30;;
8791;SDS011;4432;50.890;4.744;2023-05-07T06:01:07;9.03;;;7.20;;
8791;SDS011;4432;50.890;4.744;2023-05-07T06:03:33;10.63;;;6.43;;
8791;SDS011;4432;50.890;4.744;2023-05-07T06:05:59;11.23;;;6.37;;
8791;SDS011;4432;50.890;4.744;2023-05-07T06:08:25;7.67;;;6.77;;
8791;SDS011;4432;50.890;4.744;2023-05-07T06:10:54;10.33;;;6.43;;
8791;SDS011;4432;50.890;4.744;2023-05-07T06:13:20;12.40;;;6.37;;
8791;SDS011;4432;50.890;4.744;2023-05-07T06:15:45;6.93;;;5.57;;
8791;SDS011;4432;50.890;4.744;2023-05-07T06:18:11;11.20;;;6.30;;
8791;SDS011;4432;50.890;4.744;2023-05-07T06:20:37;7.13;;;5.37;;
8791;SDS011;4432;50.890;4.744;2023-05-07T06:23:03;7.43;;;6.10;;
8791;SDS011;4432;50.890;4.744;2023-05-07T06:25:28;13.50;;;6.07;;
8791;SDS011;4432;50.890;4.744;2023-05-07T06:27:54;10.83;;;5.73;;
8791;SDS011;4432;50.890;4.744;2023-05-07T06:30:20;9.30;;;5.30;;
8791;SDS011;4432;50.890;4.744;2023-05-07T06:32:46;10.00;;;6.10;;
8791;SDS011;4432;50.890;4.744;2023-05-07T06:35:11;9.37;;;6.10;;
8791;SDS011;4432;50.890;4.744;2023-05-07T06:37:38;9.97;;;5.90;;
8791;SDS011;4432;50.890;4.744;2023-05-07T06:40:05;9.40;;;5.53;;
8791;SDS011;4432;50.890;4.744;2023-05-07T06:42:32;7.70;;;5.20;;
8791;SDS011;4432;50.890;4.744;2023-05-07T06:44:57;8.47;;;5.83;;
8791;SDS011;4432;50.890;4.744;2023-05-07T06:47:23;7.73;;;5.47;;
8791;SDS011;4432;50.890;4.744;2023-05-07T06:49:49;8.10;;;5.63;;
8791;SDS011;4432;50.890;4.744;2023-05-07T06:52:15;6.90;;;5.30;;
8791;SDS011;4432;50.890;4.744;2023-05-07T06:54:41;10.20;;;5.17;;
8791;SDS011;4432;50.890;4.744;2023-05-07T06:57:06;5.33;;;4.40;;
8791;SDS011;4432;50.890;4.744;2023-05-07T06:59:32;6.43;;;4.87;;
8791;SDS011;4432;50.890;4.744;2023-05-07T07:01:58;6.17;;;3.80;;
8791;SDS011;4432;50.890;4.744;2023-05-07T07:04:23;5.20;;;3.53;;
8791;SDS011;4432;50.890;4.744;2023-05-07T07:06:51;4.77;;;3.37;;
8791;SDS011;4432;50.890;4.744;2023-05-07T07:09:18;5.43;;;3.13;;
8791;SDS011;4432;50.890;4.744;2023-05-07T07:11:44;4.37;;;3.60;;
8791;SDS011;4432;50.890;4.744;2023-05-07T07:14:10;9.00;;;3.90;;
8791;SDS011;4432;50.890;4.744;2023-05-07T07:16:36;3.73;;;2.80;;
8791;SDS011;4432;50.890;4.744;2023-05-07T07:19:01;4.03;;;2.60;;
8791;SDS011;4432;50.890;4.744;2023-05-07T07:21:27;5.47;;;3.20;;
8791;SDS011;4432;50.890;4.744;2023-05-07T07:23:53;5.83;;;2.80;;
8791;SDS011;4432;50.890;4.744;2023-05-07T07:26:19;6.47;;;2.90;;
8791;SDS011;4432;50.890;4.744;2023-05-07T07:28:45;8.37;;;3.27;;
8791;SDS011;4432;50.890;4.744;2023-05-07T07:31:11;9.23;;;3.27;;
8791;SDS011;4432;50.890;4.744;2023-05-07T07:33:37;5.30;;;3.37;;
8791;SDS011;4432;50.890;4.744;2023-05-07T07:36:04;9.53;;;3.33;;
8791;SDS011;4432;50.890;4.744;2023-05-07T07:38:31;5.33;;;2.90;;
8791;SDS011;4432;50.890;4.744;2023-05-07T07:40:57;5.97;;;2.90;;
8791;SDS011;4432;50.890;4.744;2023-05-07T07:43:22;4.10;;;2.77;;
8791;SDS011;4432;50.890;4.744;2023-05-07T07:45:48;4.43;;;2.77;;
8791;SDS011;4432;50.890;4.744;2023-05-07T07:48:14;4.37;;;2.47;;
8791;SDS011;4432;50.890;4.744;2023-05-07T07:50:40;3.50;;;2.33;;
8791;SDS011;4432;50.890;4.744;2023-05-07T07:53:05;2.67;;;2.20;;
8791;SDS011;4432;50.890;4.744;2023-05-07T07:55:31;5.40;;;2.30;;
8791;SDS011;4432;50.890;4.744;2023-05-07T07:57:57;7.23;;;2.73;;
8791;SDS011;4432;50.890;4.744;2023-05-07T08:00:23;4.27;;;2.63;;
8791;SDS011;4432;50.890;4.744;2023-05-07T08:02:48;6.30;;;2.90;;
8791;SDS011;4432;50.890;4.744;2023-05-07T08:05:14;6.00;;;3.40;;
8791;SDS011;4432;50.890;4.744;2023-05-07T08:07:40;5.33;;;3.03;;
8791;SDS011;4432;50.890;4.744;2023-05-07T08:10:06;5.43;;;3.17;;
8791;SDS011;4432;50.890;4.744;2023-05-07T08:12:32;5.03;;;2.53;;
8791;SDS011;4432;50.890;4.744;2023-05-07T08:14:58;4.63;;;3.00;;
8791;SDS011;4432;50.890;4.744;2023-05-07T08:17:24;6.30;;;3.13;;
8791;SDS011;4432;50.890;4.744;2023-05-07T08:19:50;4.73;;;2.60;;
8791;SDS011;4432;50.890;4.744;2023-05-07T08:22:15;3.13;;;2.40;;
8791;SDS011;4432;50.890;4.744;2023-05-07T08:24:43;9.50;;;2.87;;
8791;SDS011;4432;50.890;4.744;2023-05-07T08:27:08;4.93;;;2.40;;
8791;SDS011;4432;50.890;4.744;2023-05-07T08:29:34;4.87;;;2.23;;
8791;SDS011;4432;50.890;4.744;2023-05-07T08:32:00;6.03;;;2.60;;
8791;SDS011;4432;50.890;4.744;2023-05-07T08:34:26;2.03;;;1.93;;
8791;SDS011;4432;50.890;4.744;2023-05-07T08:36:52;3.73;;;2.10;;
8791;SDS011;4432;50.890;4.744;2023-05-07T08:39:18;3.17;;;2.07;;
8791;SDS011;4432;50.890;4.744;2023-05-07T08:41:44;7.63;;;2.20;;
8791;SDS011;4432;50.890;4.744;2023-05-07T08:44:12;4.50;;;2.20;;
8791;SDS011;4432;50.890;4.744;2023-05-07T08:46:39;3.93;;;2.27;;
8791;SDS011;4432;50.890;4.744;2023-05-07T08:49:07;3.43;;;2.00;;
8791;SDS011;4432;50.890;4.744;2023-05-07T08:51:33;5.87;;;2.27;;
8791;SDS011;4432;50.890;4.744;2023-05-07T08:53:59;3.57;;;2.30;;
8791;SDS011;4432;50.890;4.744;2023-05-07T08:56:26;3.00;;;2.00;;
8791;SDS011;4432;50.890;4.744;2023-05-07T08:58:52;2.90;;;2.20;;
8791;SDS011;4432;50.890;4.744;2023-05-07T09:01:21;4.03;;;2.10;;
8791;SDS011;4432;50.890;4.744;2023-05-07T09:03:47;4.07;;;2.07;;
8791;SDS011;4432;50.890;4.744;2023-05-07T09:06:15;5.57;;;2.70;;
8791;SDS011;4432;50.890;4.744;2023-05-07T09:08:44;6.00;;;2.20;;
8791;SDS011;4432;50.890;4.744;2023-05-07T09:11:21;4.13;;;2.10;;
8791;SDS011;4432;50.890;4.744;2023-05-07T09:13:48;3.47;;;2.20;;
8791;SDS011;4432;50.890;4.744;2023-05-07T09:16:17;2.83;;;1.97;;
8791;SDS011;4432;50.890;4.744;2023-05-07T09:18:47;2.97;;;1.90;;
8791;SDS011;4432;50.890;4.744;2023-05-07T09:21:16;3.47;;;2.07;;
8791;SDS011;4432;50.890;4.744;2023-05-07T09:23:42;3.40;;;2.10;;
8791;SDS011;4432;50.890;4.744;2023-05-07T09:26:08;6.53;;;2.27;;
8791;SDS011;4432;50.890;4.744;2023-05-07T09:28:43;2.27;;;2.00;;
8791;SDS011;4432;50.890;4.744;2023-05-07T09:31:09;2.07;;;1.90;;
8791;SDS011;4432;50.890;4.744;2023-05-07T09:33:36;5.00;;;2.13;;
8791;SDS011;4432;50.890;4.744;2023-05-07T09:36:06;4.13;;;2.50;;
8791;SDS011;4432;50.890;4.744;2023-05-07T09:38:34;6.50;;;2.10;;
8791;SDS011;4432;50.890;4.744;2023-05-07T09:43:41;2.27;;;1.97;;
8791;SDS011;4432;50.890;4.744;2023-05-07T09:46:07;3.37;;;2.10;;
8791;SDS011;4432;50.890;4.744;2023-05-07T09:48:37;3.60;;;2.47;;
8791;SDS011;4432;50.890;4.744;2023-05-07T09:51:30;3.33;;;2.43;;
8791;SDS011;4432;50.890;4.744;2023-05-07T09:53:54;3.67;;;2.10;;
8791;SDS011;4432;50.890;4.744;2023-05-07T09:56:22;3.07;;;2.13;;
8791;SDS011;4432;50.890;4.744;2023-05-07T09:58:49;6.80;;;2.27;;
8791;SDS011;4432;50.890;4.744;2023-05-07T10:01:18;8.43;;;2.47;;
8791;SDS011;4432;50.890;4.744;2023-05-07T10:03:47;4.10;;;2.00;;
8791;SDS011;4432;50.890;4.744;2023-05-07T10:06:15;5.90;;;2.30;;
8791;SDS011;4432;50.890;4.744;2023-05-07T10:08:42;3.33;;;2.37;;
8791;SDS011;4432;50.890;4.744;2023-05-07T10:11:08;7.40;;;2.60;;
8791;SDS011;4432;50.890;4.744;2023-05-07T10:13:35;4.03;;;2.20;;
8791;SDS011;4432;50.890;4.744;2023-05-07T10:16:05;3.60;;;2.20;;
8791;SDS011;4432;50.890;4.744;2023-05-07T10:18:31;4.40;;;2.07;;
8791;SDS011;4432;50.890;4.744;2023-05-07T10:21:06;4.40;;;2.37;;
8791;SDS011;4432;50.890;4.744;2023-05-07T10:23:36;6.10;;;2.53;;
8791;SDS011;4432;50.890;4.744;2023-05-07T10:26:05;4.33;;;2.13;;
8791;SDS011;4432;50.890;4.744;2023-05-07T10:28:34;4.80;;;2.40;;
8791;SDS011;4432;50.890;4.744;2023-05-07T10:34:12;2.50;;;2.30;;
8791;SDS011;4432;50.890;4.744;2023-05-07T10:36:41;4.33;;;2.17;;
8791;SDS011;4432;50.890;4.744;2023-05-07T10:39:08;2.20;;;2.00;;
8791;SDS011;4432;50.890;4.744;2023-05-07T10:41:34;4.47;;;2.20;;
8791;SDS011;4432;50.890;4.744;2023-05-07T10:44:00;3.83;;;2.30;;
8791;SDS011;4432;50.890;4.744;2023-05-07T10:46:27;2.47;;;1.90;;
8791;SDS011;4432;50.890;4.744;2023-05-07T10:51:31;5.43;;;2.20;;
8791;SDS011;4432;50.890;4.744;2023-05-07T10:56:36;3.43;;;1.90;;
8791;SDS011;4432;50.890;4.744;2023-05-07T11:01:53;4.70;;;2.40;;
8791;SDS011;4432;50.890;4.744;2023-05-07T11:04:20;3.83;;;2.00;;
8791;SDS011;4432;50.890;4.744;2023-05-07T11:15:06;3.33;;;1.93;;
8791;SDS011;4432;50.890;4.744;2023-05-07T11:17:33;3.20;;;2.00;;
8791;SDS011;4432;50.890;4.744;2023-05-07T11:20:00;5.00;;;1.77;;
8791;SDS011;4432;50.890;4.744;2023-05-07T11:24:56;2.80;;;1.60;;
8791;SDS011;4432;50.890;4.744;2023-05-07T11:27:25;2.07;;;1.93;;
8791;SDS011;4432;50.890;4.744;2023-05-07T11:29:51;1.93;;;1.63;;
8791;SDS011;4432;50.890;4.744;2023-05-07T11:34:53;3.53;;;1.90;;
8791;SDS011;4432;50.890;4.744;2023-05-07T11:37:20;4.87;;;2.10;;
8791;SDS011;4432;50.890;4.744;2023-05-07T11:39:47;2.33;;;1.67;;
8791;SDS011;4432;50.890;4.744;2023-05-07T11:42:27;4.07;;;1.57;;
8791;SDS011;4432;50.890;4.744;2023-05-07T11:45:00;4.27;;;1.73;;
8791;SDS011;4432;50.890;4.744;2023-05-07T11:47:29;3.50;;;1.90;;
8791;SDS011;4432;50.890;4.744;2023-05-07T11:49:55;1.60;;;1.50;;
8791;SDS011;4432;50.890;4.744;2023-05-07T11:52:22;3.00;;;1.60;;
8791;SDS011;4432;50.890;4.744;2023-05-07T11:54:56;3.70;;;1.63;;
8791;SDS011;4432;50.890;4.744;2023-05-07T11:57:24;2.23;;;1.50;;
8791;SDS011;4432;50.890;4.744;2023-05-07T11:59:53;3.23;;;1.60;;
8791;SDS011;4432;50.890;4.744;2023-05-07T12:02:20;4.07;;;1.80;;
8791;SDS011;4432;50.890;4.744;2023-05-07T12:04:46;2.60;;;1.67;;
8791;SDS011;4432;50.890;4.744;2023-05-07T12:07:12;1.33;;;1.27;;
8791;SDS011;4432;50.890;4.744;2023-05-07T12:09:41;2.43;;;1.53;;
8791;SDS011;4432;50.890;4.744;2023-05-07T12:12:07;3.40;;;1.90;;
8791;SDS011;4432;50.890;4.744;2023-05-07T12:14:37;3.57;;;1.70;;
8791;SDS011;4432;50.890;4.744;2023-05-07T12:17:04;1.83;;;1.73;;
8791;SDS011;4432;50.890;4.744;2023-05-07T12:19:32;3.00;;;1.97;;
8791;SDS011;4432;50.890;4.744;2023-05-07T12:21:59;2.93;;;1.50;;
8791;SDS011;4432;50.890;4.744;2023-05-07T12:24:26;2.10;;;1.40;;
8791;SDS011;4432;50.890;4.744;2023-05-07T12:26:52;2.07;;;1.40;;
8791;SDS011;4432;50.890;4.744;2023-05-07T12:29:21;2.03;;;1.60;;
8791;SDS011;4432;50.890;4.744;2023-05-07T12:31:47;3.57;;;1.50;;
8791;SDS011;4432;50.890;4.744;2023-05-07T12:34:15;2.40;;;1.57;;
8791;SDS011;4432;50.890;4.744;2023-05-07T12:36:40;3.03;;;1.30;;
8791;SDS011;4432;50.890;4.744;2023-05-07T12:39:07;3.27;;;1.20;;
8791;SDS011;4432;50.890;4.744;2023-05-07T12:41:51;2.97;;;1.27;;
8791;SDS011;4432;50.890;4.744;2023-05-07T12:44:25;3.30;;;1.53;;
8791;SDS011;4432;50.890;4.744;2023-05-07T12:46:54;2.97;;;1.43;;
8791;SDS011;4432;50.890;4.744;2023-05-07T12:49:20;2.17;;;1.23;;
8791;SDS011;4432;50.890;4.744;2023-05-07T12:51:49;1.77;;;1.30;;
8791;SDS011;4432;50.890;4.744;2023-05-07T12:54:37;2.33;;;1.30;;
8791;SDS011;4432;50.890;4.744;2023-05-07T12:59:39;1.40;;;1.13;;
8791;SDS011;4432;50.890;4.744;2023-05-07T13:02:06;2.60;;;1.33;;
8791;SDS011;4432;50.890;4.744;2023-05-07T13:04:33;1.90;;;1.20;;
8791;SDS011;4432;50.890;4.744;2023-05-07T13:06:59;2.77;;;1.40;;
8791;SDS011;4432;50.890;4.744;2023-05-07T13:09:26;1.40;;;1.20;;
8791;SDS011;4432;50.890;4.744;2023-05-07T13:11:53;2.23;;;1.40;;
8791;SDS011;4432;50.890;4.744;2023-05-07T13:14:18;2.93;;;1.13;;
8791;SDS011;4432;50.890;4.744;2023-05-07T13:16:46;1.77;;;1.30;;
8791;SDS011;4432;50.890;4.744;2023-05-07T13:19:12;4.90;;;1.37;;
8791;SDS011;4432;50.890;4.744;2023-05-07T13:21:38;2.80;;;1.50;;
8791;SDS011;4432;50.890;4.744;2023-05-07T13:24:04;2.60;;;1.20;;
8791;SDS011;4432;50.890;4.744;2023-05-07T13:26:30;2.63;;;1.43;;
8791;SDS011;4432;50.890;4.744;2023-05-07T13:28:56;1.73;;;1.30;;
8791;SDS011;4432;50.890;4.744;2023-05-07T13:31:22;5.07;;;1.40;;
8791;SDS011;4432;50.890;4.744;2023-05-07T13:33:49;1.57;;;1.13;;
8791;SDS011;4432;50.890;4.744;2023-05-07T13:36:15;2.53;;;1.13;;
8791;SDS011;4432;50.890;4.744;2023-05-07T13:38:41;2.67;;;1.17;;
8791;SDS011;4432;50.890;4.744;2023-05-07T13:41:07;2.87;;;1.27;;
8791;SDS011;4432;50.890;4.744;2023-05-07T13:43:32;3.90;;;1.50;;
8791;SDS011;4432;50.890;4.744;2023-05-07T13:45:59;1.97;;;1.33;;
8791;SDS011;4432;50.890;4.744;2023-05-07T13:48:25;2.63;;;1.30;;
8791;SDS011;4432;50.890;4.744;2023-05-07T13:50:51;2.40;;;1.77;;
8791;SDS011;4432;50.890;4.744;2023-05-07T13:53:17;1.63;;;1.53;;
8791;SDS011;4432;50.890;4.744;2023-05-07T13:55:43;2.30;;;1.73;;
8791;SDS011;4432;50.890;4.744;2023-05-07T13:58:10;1.47;;;1.37;;
8791;SDS011;4432;50.890;4.744;2023-05-07T14:00:36;2.97;;;1.90;;
8791;SDS011;4432;50.890;4.744;2023-05-07T14:03:01;2.40;;;2.00;;
8791;SDS011;4432;50.890;4.744;2023-05-07T14:05:29;3.10;;;1.90;;
8791;SDS011;4432;50.890;4.744;2023-05-07T14:07:55;1.90;;;1.80;;
8791;SDS011;4432;50.890;4.744;2023-05-07T14:10:22;1.80;;;1.70;;
8791;SDS011;4432;50.890;4.744;2023-05-07T14:12:49;3.40;;;2.13;;
8791;SDS011;4432;50.890;4.744;2023-05-07T14:15:15;4.30;;;1.70;;
8791;SDS011;4432;50.890;4.744;2023-05-07T14:17:41;3.20;;;1.60;;
8791;SDS011;4432;50.890;4.744;2023-05-07T14:20:07;2.27;;;1.63;;
8791;SDS011;4432;50.890;4.744;2023-05-07T14:22:35;1.70;;;1.60;;
8791;SDS011;4432;50.890;4.744;2023-05-07T14:25:01;3.53;;;1.70;;
8791;SDS011;4432;50.890;4.744;2023-05-07T14:27:27;2.67;;;1.53;;
8791;SDS011;4432;50.890;4.744;2023-05-07T14:29:52;1.63;;;1.53;;
8791;SDS011;4432;50.890;4.744;2023-05-07T14:32:18;1.60;;;1.50;;
8791;SDS011;4432;50.890;4.744;2023-05-07T14:34:44;2.23;;;1.77;;
8791;SDS011;4432;50.890;4.744;2023-05-07T14:37:11;3.37;;;1.70;;
8791;SDS011;4432;50.890;4.744;2023-05-07T14:39:37;1.67;;;1.57;;
8791;SDS011;4432;50.890;4.744;2023-05-07T14:42:02;4.63;;;1.63;;
8791;SDS011;4432;50.890;4.744;2023-05-07T14:44:28;3.27;;;1.70;;
8791;SDS011;4432;50.890;4.744;2023-05-07T14:46:54;5.90;;;1.90;;
8791;SDS011;4432;50.890;4.744;2023-05-07T14:49:20;1.93;;;1.70;;
8791;SDS011;4432;50.890;4.744;2023-05-07T14:51:46;4.33;;;1.60;;
8791;SDS011;4432;50.890;4.744;2023-05-07T14:54:12;1.60;;;1.50;;
8791;SDS011;4432;50.890;4.744;2023-05-07T14:56:39;1.60;;;1.47;;
8791;SDS011;4432;50.890;4.744;2023-05-07T14:59:05;2.23;;;1.80;;
8791;SDS011;4432;50.890;4.744;2023-05-07T15:01:32;1.57;;;1.33;;
8791;SDS011;4432;50.890;4.744;2023-05-07T15:03:59;1.57;;;1.47;;
8791;SDS011;4432;50.890;4.744;2023-05-07T15:06:25;2.83;;;1.40;;
8791;SDS011;4432;50.890;4.744;2023-05-07T15:08:51;1.90;;;1.50;;
8791;SDS011;4432;50.890;4.744;2023-05-07T15:11:17;1.93;;;1.40;;
8791;SDS011;4432;50.890;4.744;2023-05-07T15:13:43;4.00;;;1.60;;
8791;SDS011;4432;50.890;4.744;2023-05-07T15:16:09;2.70;;;1.50;;
8791;SDS011;4432;50.890;4.744;2023-05-07T15:18:35;1.60;;;1.43;;
8791;SDS011;4432;50.890;4.744;2023-05-07T15:21:01;3.87;;;1.73;;
8791;SDS011;4432;50.890;4.744;2023-05-07T15:23:27;3.73;;;1.80;;
8791;SDS011;4432;50.890;4.744;2023-05-07T15:25:53;3.13;;;1.70;;
8791;SDS011;4432;50.890;4.744;2023-05-07T15:28:19;3.37;;;1.70;;
8791;SDS011;4432;50.890;4.744;2023-05-07T15:30:44;2.63;;;1.77;;
8791;SDS011;4432;50.890;4.744;2023-05-07T15:33:10;4.43;;;1.80;;
8791;SDS011;4432;50.890;4.744;2023-05-07T15:35:36;2.00;;;1.70;;
8791;SDS011;4432;50.890;4.744;2023-05-07T15:38:02;4.27;;;1.63;;
8791;SDS011;4432;50.890;4.744;2023-05-07T15:40:28;3.70;;;1.77;;